<?xml version="1.0" encoding="UTF-8" standalone="no" ?>
<gpx xmlns="http://www.topografix.com/GPX/1/1" xmlns:xsi="http://www.w3.org/2001/XMLSchema-instance" xsi:schemaLocation="http://www.topografix.com/GPX/1/1 http://www.topografix.com/GPX/1/1/gpx.xsd" version="1.1" creator="VisuGPX - https://www.visugpx.com">
  <metadata>
    <name>la romieu 2 bis</name>
    <desc><![CDATA[boucle La Romieu Gazaupouy]]></desc>
  </metadata>
  <trk>
    <name><![CDATA[13970622-la romieu 2 bis]]></name>
    <extensions>
      <line xmlns="http://www.topografix.com/GPX/gpx_style/0/2">
        <color>0000FF</color>
        <width>4</width>
      </line>
    </extensions>
    <trkseg>
      <trkpt lat="43.98266" lon="0.49797">
        <ele>188</ele>
        <time>2021-11-25T16:06:34Z</time>
      </trkpt>
      <trkpt lat="43.98355" lon="0.49876">
        <ele>181</ele>
        <time>2021-11-25T16:08:55Z</time>
      </trkpt>
      <trkpt lat="43.98418" lon="0.49906">
        <ele>179</ele>
        <time>2021-11-25T16:10:24Z</time>
      </trkpt>
      <trkpt lat="43.9848" lon="0.50031">
        <ele>180</ele>
        <time>2021-11-25T16:12:50Z</time>
      </trkpt>
      <trkpt lat="43.98527" lon="0.50082">
        <ele>180</ele>
        <time>2021-11-25T16:14:09Z</time>
      </trkpt>
      <trkpt lat="43.98591" lon="0.50097">
        <ele>179</ele>
        <time>2021-11-25T16:15:36Z</time>
      </trkpt>
      <trkpt lat="43.98652" lon="0.5014">
        <ele>179</ele>
        <time>2021-11-25T16:17:07Z</time>
      </trkpt>
      <trkpt lat="43.98804" lon="0.50097">
        <ele>170</ele>
        <time>2021-11-25T16:20:34Z</time>
      </trkpt>
      <trkpt lat="43.9898" lon="0.50119">
        <ele>154</ele>
        <time>2021-11-25T16:24:30Z</time>
      </trkpt>
      <trkpt lat="43.9907" lon="0.50112">
        <ele>148</ele>
        <time>2021-11-25T16:26:30Z</time>
      </trkpt>
      <trkpt lat="43.99215" lon="0.5025">
        <ele>148</ele>
        <time>2021-11-25T16:30:25Z</time>
      </trkpt>
      <trkpt lat="43.99247" lon="0.50155">
        <ele>143</ele>
        <time>2021-11-25T16:32:05Z</time>
      </trkpt>
      <trkpt lat="43.99298" lon="0.49988">
        <ele>157</ele>
        <time>2021-11-25T16:35:00Z</time>
      </trkpt>
      <trkpt lat="43.99373" lon="0.50001">
        <ele>161</ele>
        <time>2021-11-25T16:36:40Z</time>
      </trkpt>
      <trkpt lat="43.99373" lon="0.49945">
        <ele>165</ele>
        <time>2021-11-25T16:37:34Z</time>
      </trkpt>
      <trkpt lat="43.99397" lon="0.4981">
        <ele>171</ele>
        <time>2021-11-25T16:39:48Z</time>
      </trkpt>
      <trkpt lat="43.99456" lon="0.49737">
        <ele>175</ele>
        <time>2021-11-25T16:41:33Z</time>
      </trkpt>
      <trkpt lat="43.99487" lon="0.49638">
        <ele>177</ele>
        <time>2021-11-25T16:43:17Z</time>
      </trkpt>
      <trkpt lat="43.9953" lon="0.49664">
        <ele>182</ele>
        <time>2021-11-25T16:44:19Z</time>
      </trkpt>
      <trkpt lat="43.99546" lon="0.49627">
        <ele>182</ele>
        <time>2021-11-25T16:45:01Z</time>
      </trkpt>
      <trkpt lat="43.99576" lon="0.49621">
        <ele>184</ele>
        <time>2021-11-25T16:45:41Z</time>
      </trkpt>
      <trkpt lat="43.99604" lon="0.49567">
        <ele>185</ele>
        <time>2021-11-25T16:46:45Z</time>
      </trkpt>
      <trkpt lat="43.99768" lon="0.49677">
        <ele>166</ele>
        <time>2021-11-25T16:50:48Z</time>
      </trkpt>
      <trkpt lat="43.99873" lon="0.4972">
        <ele>169</ele>
        <time>2021-11-25T16:53:14Z</time>
      </trkpt>
      <trkpt lat="44.00053" lon="0.49859">
        <ele>189</ele>
        <time>2021-11-25T16:57:49Z</time>
      </trkpt>
      <trkpt lat="44.00222" lon="0.49765">
        <ele>184</ele>
        <time>2021-11-25T17:01:52Z</time>
      </trkpt>
      <trkpt lat="44.003" lon="0.49685">
        <ele>185</ele>
        <time>2021-11-25T17:04:01Z</time>
      </trkpt>
      <trkpt lat="44.00368" lon="0.49702">
        <ele>181</ele>
        <time>2021-11-25T17:05:33Z</time>
      </trkpt>
      <trkpt lat="44.0058" lon="0.49666">
        <ele>184</ele>
        <time>2021-11-25T17:10:18Z</time>
      </trkpt>
      <trkpt lat="44.0058" lon="0.49602">
        <ele>185</ele>
        <time>2021-11-25T17:11:20Z</time>
      </trkpt>
      <trkpt lat="44.0057" lon="0.49546">
        <ele>188</ele>
        <time>2021-11-25T17:12:15Z</time>
      </trkpt>
      <trkpt lat="44.00576" lon="0.49469">
        <ele>192</ele>
        <time>2021-11-25T17:13:30Z</time>
      </trkpt>
      <trkpt lat="44.00572" lon="0.49404">
        <ele>195</ele>
        <time>2021-11-25T17:14:32Z</time>
      </trkpt>
      <trkpt lat="44.00584" lon="0.4934">
        <ele>198</ele>
        <time>2021-11-25T17:15:36Z</time>
      </trkpt>
      <trkpt lat="44.00572" lon="0.49305">
        <ele>198</ele>
        <time>2021-11-25T17:16:13Z</time>
      </trkpt>
      <trkpt lat="44.00635" lon="0.49235">
        <ele>198</ele>
        <time>2021-11-25T17:18:00Z</time>
      </trkpt>
      <trkpt lat="44.00688" lon="0.49155">
        <ele>200</ele>
        <time>2021-11-25T17:19:45Z</time>
      </trkpt>
      <trkpt lat="44.00808" lon="0.4903">
        <ele>197</ele>
        <time>2021-11-25T17:23:05Z</time>
      </trkpt>
      <trkpt lat="44.00879" lon="0.48957">
        <ele>194</ele>
        <time>2021-11-25T17:25:03Z</time>
      </trkpt>
      <trkpt lat="44.00972" lon="0.4888">
        <ele>192</ele>
        <time>2021-11-25T17:27:27Z</time>
      </trkpt>
      <trkpt lat="44.0101" lon="0.488">
        <ele>191</ele>
        <time>2021-11-25T17:28:59Z</time>
      </trkpt>
      <trkpt lat="44.01063" lon="0.48811">
        <ele>186</ele>
        <time>2021-11-25T17:30:11Z</time>
      </trkpt>
      <trkpt lat="44.01098" lon="0.48828">
        <ele>184</ele>
        <time>2021-11-25T17:31:00Z</time>
      </trkpt>
      <trkpt lat="44.01203" lon="0.48974">
        <ele>182</ele>
        <time>2021-11-25T17:34:18Z</time>
      </trkpt>
      <trkpt lat="44.01267" lon="0.49">
        <ele>181</ele>
        <time>2021-11-25T17:35:47Z</time>
      </trkpt>
      <trkpt lat="44.01348" lon="0.49013">
        <ele>179</ele>
        <time>2021-11-25T17:37:36Z</time>
      </trkpt>
      <trkpt lat="44.01475" lon="0.49073">
        <ele>176</ele>
        <time>2021-11-25T17:40:35Z</time>
      </trkpt>
      <trkpt lat="44.01536" lon="0.49165">
        <ele>179</ele>
        <time>2021-11-25T17:42:35Z</time>
      </trkpt>
      <trkpt lat="44.0157" lon="0.49179">
        <ele>180</ele>
        <time>2021-11-25T17:43:23Z</time>
      </trkpt>
      <trkpt lat="44.0166" lon="0.49078">
        <ele>177</ele>
        <time>2021-11-25T17:45:57Z</time>
      </trkpt>
      <trkpt lat="44.01808" lon="0.48951">
        <ele>176</ele>
        <time>2021-11-25T17:49:49Z</time>
      </trkpt>
      <trkpt lat="44.01929" lon="0.48886">
        <ele>175</ele>
        <time>2021-11-25T17:52:42Z</time>
      </trkpt>
      <trkpt lat="44.01947" lon="0.48743">
        <ele>171</ele>
        <time>2021-11-25T17:55:01Z</time>
      </trkpt>
      <trkpt lat="44.01964" lon="0.48649">
        <ele>169</ele>
        <time>2021-11-25T17:56:34Z</time>
      </trkpt>
      <trkpt lat="44.01962" lon="0.48529">
        <ele>165</ele>
        <time>2021-11-25T17:58:30Z</time>
      </trkpt>
      <trkpt lat="44.01953" lon="0.48436">
        <ele>163</ele>
        <time>2021-11-25T18:00:00Z</time>
      </trkpt>
      <trkpt lat="44.01981" lon="0.48278">
        <ele>162</ele>
        <time>2021-11-25T18:02:36Z</time>
      </trkpt>
      <trkpt lat="44.01978" lon="0.48248">
        <ele>162</ele>
        <time>2021-11-25T18:03:05Z</time>
      </trkpt>
      <trkpt lat="44.01873" lon="0.48175">
        <ele>156</ele>
        <time>2021-11-25T18:05:42Z</time>
      </trkpt>
      <trkpt lat="44.01797" lon="0.47733">
        <ele>128</ele>
        <time>2021-11-25T18:12:58Z</time>
      </trkpt>
      <trkpt lat="44.01766" lon="0.47681">
        <ele>124</ele>
        <time>2021-11-25T18:14:02Z</time>
      </trkpt>
      <trkpt lat="44.01754" lon="0.47617">
        <ele>123</ele>
        <time>2021-11-25T18:15:06Z</time>
      </trkpt>
      <trkpt lat="44.01766" lon="0.47458">
        <ele>122</ele>
        <time>2021-11-25T18:17:39Z</time>
      </trkpt>
      <trkpt lat="44.01689" lon="0.47381">
        <ele>127</ele>
        <time>2021-11-25T18:19:46Z</time>
      </trkpt>
      <trkpt lat="44.01643" lon="0.47441">
        <ele>128</ele>
        <time>2021-11-25T18:21:10Z</time>
      </trkpt>
      <trkpt lat="44.01547" lon="0.47464">
        <ele>133</ele>
        <time>2021-11-25T18:23:20Z</time>
      </trkpt>
      <trkpt lat="44.01501" lon="0.47557">
        <ele>136</ele>
        <time>2021-11-25T18:25:08Z</time>
      </trkpt>
      <trkpt lat="44.01371" lon="0.47703">
        <ele>150</ele>
        <time>2021-11-25T18:28:51Z</time>
      </trkpt>
      <trkpt lat="44.01242" lon="0.47763">
        <ele>166</ele>
        <time>2021-11-25T18:31:53Z</time>
      </trkpt>
      <trkpt lat="44.01257" lon="0.47647">
        <ele>166</ele>
        <time>2021-11-25T18:33:46Z</time>
      </trkpt>
      <trkpt lat="44.0126" lon="0.47494">
        <ele>165</ele>
        <time>2021-11-25T18:36:13Z</time>
      </trkpt>
      <trkpt lat="44.01306" lon="0.47434">
        <ele>161</ele>
        <time>2021-11-25T18:37:37Z</time>
      </trkpt>
      <trkpt lat="44.01251" lon="0.47348">
        <ele>158</ele>
        <time>2021-11-25T18:39:28Z</time>
      </trkpt>
      <trkpt lat="44.01141" lon="0.47509">
        <ele>155</ele>
        <time>2021-11-25T18:43:01Z</time>
      </trkpt>
      <trkpt lat="44.01117" lon="0.476">
        <ele>155</ele>
        <time>2021-11-25T18:44:34Z</time>
      </trkpt>
      <trkpt lat="44.01103" lon="0.47625">
        <ele>154</ele>
        <time>2021-11-25T18:45:04Z</time>
      </trkpt>
      <trkpt lat="44.0108" lon="0.47705">
        <ele>156</ele>
        <time>2021-11-25T18:46:27Z</time>
      </trkpt>
      <trkpt lat="44.0103" lon="0.47808">
        <ele>152</ele>
        <time>2021-11-25T18:48:26Z</time>
      </trkpt>
      <trkpt lat="44.01026" lon="0.47977">
        <ele>155</ele>
        <time>2021-11-25T18:51:08Z</time>
      </trkpt>
      <trkpt lat="44.00962" lon="0.48037">
        <ele>151</ele>
        <time>2021-11-25T18:52:51Z</time>
      </trkpt>
      <trkpt lat="44.00865" lon="0.48039">
        <ele>156</ele>
        <time>2021-11-25T18:55:01Z</time>
      </trkpt>
      <trkpt lat="44.00874" lon="0.47928">
        <ele>155</ele>
        <time>2021-11-25T18:56:48Z</time>
      </trkpt>
      <trkpt lat="44.00865" lon="0.47827">
        <ele>153</ele>
        <time>2021-11-25T18:58:26Z</time>
      </trkpt>
      <trkpt lat="44.00881" lon="0.47733">
        <ele>145</ele>
        <time>2021-11-25T18:59:58Z</time>
      </trkpt>
      <trkpt lat="44.00847" lon="0.47621">
        <ele>144</ele>
        <time>2021-11-25T19:01:55Z</time>
      </trkpt>
      <trkpt lat="44.00853" lon="0.47546">
        <ele>147</ele>
        <time>2021-11-25T19:03:08Z</time>
      </trkpt>
      <trkpt lat="44.00827" lon="0.47486">
        <ele>154</ele>
        <time>2021-11-25T19:04:15Z</time>
      </trkpt>
      <trkpt lat="44.00839" lon="0.47149">
        <ele>160</ele>
        <time>2021-11-25T19:09:39Z</time>
      </trkpt>
      <trkpt lat="44.00901" lon="0.4702">
        <ele>152</ele>
        <time>2021-11-25T19:12:08Z</time>
      </trkpt>
      <trkpt lat="44.00879" lon="0.46924">
        <ele>157</ele>
        <time>2021-11-25T19:13:44Z</time>
      </trkpt>
      <trkpt lat="44.00919" lon="0.46786">
        <ele>158</ele>
        <time>2021-11-25T19:16:07Z</time>
      </trkpt>
      <trkpt lat="44.00921" lon="0.46724">
        <ele>161</ele>
        <time>2021-11-25T19:17:07Z</time>
      </trkpt>
      <trkpt lat="44.01016" lon="0.4666">
        <ele>155</ele>
        <time>2021-11-25T19:19:27Z</time>
      </trkpt>
      <trkpt lat="44.01049" lon="0.4655">
        <ele>157</ele>
        <time>2021-11-25T19:21:22Z</time>
      </trkpt>
      <trkpt lat="44.01092" lon="0.46419">
        <ele>161</ele>
        <time>2021-11-25T19:23:40Z</time>
      </trkpt>
      <trkpt lat="44.0118" lon="0.46432">
        <ele>158</ele>
        <time>2021-11-25T19:25:38Z</time>
      </trkpt>
      <trkpt lat="44.01094" lon="0.46254">
        <ele>174</ele>
        <time>2021-11-25T19:29:04Z</time>
      </trkpt>
      <trkpt lat="44.01089" lon="0.46179">
        <ele>175</ele>
        <time>2021-11-25T19:30:16Z</time>
      </trkpt>
      <trkpt lat="44.01009" lon="0.46057">
        <ele>178</ele>
        <time>2021-11-25T19:32:55Z</time>
      </trkpt>
      <trkpt lat="44.0097" lon="0.45954">
        <ele>174</ele>
        <time>2021-11-25T19:34:46Z</time>
      </trkpt>
      <trkpt lat="44.00933" lon="0.45894">
        <ele>172</ele>
        <time>2021-11-25T19:36:02Z</time>
      </trkpt>
      <trkpt lat="44.0091" lon="0.45846">
        <ele>171</ele>
        <time>2021-11-25T19:36:58Z</time>
      </trkpt>
      <trkpt lat="44.00796" lon="0.45673">
        <ele>170</ele>
        <time>2021-11-25T19:40:43Z</time>
      </trkpt>
      <trkpt lat="44.00772" lon="0.45514">
        <ele>172</ele>
        <time>2021-11-25T19:43:19Z</time>
      </trkpt>
      <trkpt lat="44.0078" lon="0.45441">
        <ele>171</ele>
        <time>2021-11-25T19:44:30Z</time>
      </trkpt>
      <trkpt lat="44.00827" lon="0.45241">
        <ele>176</ele>
        <time>2021-11-25T19:47:52Z</time>
      </trkpt>
      <trkpt lat="44.00827" lon="0.45114">
        <ele>179</ele>
        <time>2021-11-25T19:49:53Z</time>
      </trkpt>
      <trkpt lat="44.00833" lon="0.4522">
        <ele>176</ele>
        <time>2021-11-25T19:51:36Z</time>
      </trkpt>
      <trkpt lat="44.00783" lon="0.45434">
        <ele>171</ele>
        <time>2021-11-25T19:55:12Z</time>
      </trkpt>
      <trkpt lat="44.00796" lon="0.45758">
        <ele>171</ele>
        <time>2021-11-25T20:00:23Z</time>
      </trkpt>
      <trkpt lat="44.00774" lon="0.45767">
        <ele>170</ele>
        <time>2021-11-25T20:00:54Z</time>
      </trkpt>
      <trkpt lat="44.00674" lon="0.46246">
        <ele>176</ele>
        <time>2021-11-25T20:08:52Z</time>
      </trkpt>
      <trkpt lat="44.006" lon="0.46361">
        <ele>169</ele>
        <time>2021-11-25T20:11:20Z</time>
      </trkpt>
      <trkpt lat="44.0057" lon="0.46574">
        <ele>171</ele>
        <time>2021-11-25T20:14:49Z</time>
      </trkpt>
      <trkpt lat="44.0053" lon="0.46709">
        <ele>171</ele>
        <time>2021-11-25T20:17:09Z</time>
      </trkpt>
      <trkpt lat="44.00509" lon="0.46855">
        <ele>177</ele>
        <time>2021-11-25T20:19:32Z</time>
      </trkpt>
      <trkpt lat="44.00444" lon="0.46872">
        <ele>175</ele>
        <time>2021-11-25T20:21:00Z</time>
      </trkpt>
      <trkpt lat="44.00405" lon="0.46924">
        <ele>178</ele>
        <time>2021-11-25T20:22:12Z</time>
      </trkpt>
      <trkpt lat="44.00333" lon="0.46924">
        <ele>180</ele>
        <time>2021-11-25T20:23:48Z</time>
      </trkpt>
      <trkpt lat="44.00246" lon="0.47121">
        <ele>191</ele>
        <time>2021-11-25T20:27:30Z</time>
      </trkpt>
      <trkpt lat="44.00238" lon="0.4719">
        <ele>195</ele>
        <time>2021-11-25T20:28:37Z</time>
      </trkpt>
      <trkpt lat="44.00195" lon="0.47329">
        <ele>203</ele>
        <time>2021-11-25T20:31:02Z</time>
      </trkpt>
      <trkpt lat="44.00137" lon="0.47316">
        <ele>201</ele>
        <time>2021-11-25T20:32:21Z</time>
      </trkpt>
      <trkpt lat="44.001" lon="0.47327">
        <ele>200</ele>
        <time>2021-11-25T20:33:11Z</time>
      </trkpt>
      <trkpt lat="43.99754" lon="0.47775">
        <ele>181</ele>
        <time>2021-11-25T20:43:42Z</time>
      </trkpt>
      <trkpt lat="43.9968" lon="0.47876">
        <ele>182</ele>
        <time>2021-11-25T20:46:01Z</time>
      </trkpt>
      <trkpt lat="43.99606" lon="0.47881">
        <ele>181</ele>
        <time>2021-11-25T20:47:40Z</time>
      </trkpt>
      <trkpt lat="43.99579" lon="0.47895">
        <ele>181</ele>
        <time>2021-11-25T20:48:18Z</time>
      </trkpt>
      <trkpt lat="43.99414" lon="0.48035">
        <ele>186</ele>
        <time>2021-11-25T20:52:36Z</time>
      </trkpt>
      <trkpt lat="43.9935" lon="0.48245">
        <ele>196</ele>
        <time>2021-11-25T20:56:15Z</time>
      </trkpt>
      <trkpt lat="43.99145" lon="0.48351">
        <ele>195</ele>
        <time>2021-11-25T21:01:07Z</time>
      </trkpt>
      <trkpt lat="43.98838" lon="0.48604">
        <ele>184</ele>
        <time>2021-11-25T21:09:03Z</time>
      </trkpt>
      <trkpt lat="43.98715" lon="0.48632">
        <ele>183</ele>
        <time>2021-11-25T21:11:49Z</time>
      </trkpt>
      <trkpt lat="43.98672" lon="0.48788">
        <ele>178</ele>
        <time>2021-11-25T21:14:30Z</time>
      </trkpt>
      <trkpt lat="43.98604" lon="0.48917">
        <ele>180</ele>
        <time>2021-11-25T21:17:03Z</time>
      </trkpt>
      <trkpt lat="43.98557" lon="0.49138">
        <ele>180</ele>
        <time>2021-11-25T21:20:45Z</time>
      </trkpt>
      <trkpt lat="43.9832" lon="0.49464">
        <ele>188</ele>
        <time>2021-11-25T21:28:10Z</time>
      </trkpt>
      <trkpt lat="43.98227" lon="0.49578">
        <ele>186</ele>
        <time>2021-11-25T21:30:55Z</time>
      </trkpt>
      <trkpt lat="43.98258" lon="0.49664">
        <ele>187</ele>
        <time>2021-11-25T21:32:27Z</time>
      </trkpt>
      <trkpt lat="43.98269" lon="0.49773">
        <ele>188</ele>
        <time>2021-11-25T21:34:13Z</time>
      </trkpt>
    </trkseg>
  </trk>
</gpx>